sensor_id;sensor_type;location;lat;lon;timestamp;pressure;altitude;pressure_sealevel;temperature;humidity
80308;BME280;69616;43.522;1.348;2023-07-13T00:02:04;100260.78;;;22.85;64.11
80308;BME280;69616;43.522;1.348;2023-07-13T00:04:30;100258.16;;;22.84;64.25
80308;BME280;69616;43.522;1.348;2023-07-13T00:06:55;100261.81;;;22.83;64.17
80308;BME280;69616;43.522;1.348;2023-07-13T00:09:21;100260.19;;;22.80;64.41
80308;BME280;69616;43.522;1.348;2023-07-13T00:11:51;100253.16;;;22.77;64.42
80308;BME280;69616;43.522;1.348;2023-07-13T00:14:17;100247.78;;;22.77;64.31
80308;BME280;69616;43.522;1.348;2023-07-13T00:16:42;100254.88;;;22.78;64.22
80308;BME280;69616;43.522;1.348;2023-07-13T00:19:09;100256.06;;;22.73;64.58
80308;BME280;69616;43.522;1.348;2023-07-13T00:21:35;100250.72;;;22.73;64.54
80308;BME280;69616;43.522;1.348;2023-07-13T00:24:00;100249.94;;;22.71;64.31
80308;BME280;69616;43.522;1.348;2023-07-13T00:26:26;100259.88;;;22.69;64.92
80308;BME280;69616;43.522;1.348;2023-07-13T00:28:52;100256.34;;;22.68;64.58
80308;BME280;69616;43.522;1.348;2023-07-13T00:31:17;100249.16;;;22.69;64.55
80308;BME280;69616;43.522;1.348;2023-07-13T00:33:43;100254.53;;;22.69;64.65
80308;BME280;69616;43.522;1.348;2023-07-13T00:36:09;100245.69;;;22.67;64.57
80308;BME280;69616;43.522;1.348;2023-07-13T00:38:35;100248.44;;;22.65;64.67
80308;BME280;69616;43.522;1.348;2023-07-13T00:41:01;100245.88;;;22.63;64.95
80308;BME280;69616;43.522;1.348;2023-07-13T00:43:27;100246.88;;;22.61;64.98
80308;BME280;69616;43.522;1.348;2023-07-13T00:48:21;100248.78;;;22.59;64.93
80308;BME280;69616;43.522;1.348;2023-07-13T00:50:50;100251.41;;;22.60;64.92
80308;BME280;69616;43.522;1.348;2023-07-13T00:53:17;100252.09;;;22.64;64.71
80308;BME280;69616;43.522;1.348;2023-07-13T00:55:43;100252.72;;;22.69;64.78
80308;BME280;69616;43.522;1.348;2023-07-13T00:58:09;100253.50;;;22.71;64.83
80308;BME280;69616;43.522;1.348;2023-07-13T01:00:36;100253.31;;;22.74;64.82
80308;BME280;69616;43.522;1.348;2023-07-13T01:03:03;100251.50;;;22.75;64.72
80308;BME280;69616;43.522;1.348;2023-07-13T01:05:30;100251.50;;;22.75;64.57
80308;BME280;69616;43.522;1.348;2023-07-13T01:07:57;100257.81;;;22.74;64.61
80308;BME280;69616;43.522;1.348;2023-07-13T01:10:24;100251.75;;;22.70;64.84
80308;BME280;69616;43.522;1.348;2023-07-13T01:12:50;100255.47;;;22.68;64.75
80308;BME280;69616;43.522;1.348;2023-07-13T01:18:02;100257.06;;;22.54;65.23
80308;BME280;69616;43.522;1.348;2023-07-13T01:20:28;100259.75;;;22.54;65.08
80308;BME280;69616;43.522;1.348;2023-07-13T01:22:53;100265.13;;;22.54;65.06
80308;BME280;69616;43.522;1.348;2023-07-13T01:25:20;100262.44;;;22.54;64.90
80308;BME280;69616;43.522;1.348;2023-07-13T01:27:46;100271.31;;;22.56;65.04
80308;BME280;69616;43.522;1.348;2023-07-13T01:30:11;100268.53;;;22.58;65.05
80308;BME280;69616;43.522;1.348;2023-07-13T01:32:37;100270.25;;;22.59;64.81
80308;BME280;69616;43.522;1.348;2023-07-13T01:35:02;100275.56;;;22.60;65.16
80308;BME280;69616;43.522;1.348;2023-07-13T01:37:28;100269.25;;;22.61;64.84
80308;BME280;69616;43.522;1.348;2023-07-13T01:39:58;100267.34;;;22.63;64.82
80308;BME280;69616;43.522;1.348;2023-07-13T01:42:24;100266.44;;;22.63;64.96
80308;BME280;69616;43.522;1.348;2023-07-13T01:44:49;100271.13;;;22.59;65.05
80308;BME280;69616;43.522;1.348;2023-07-13T01:47:14;100272.16;;;22.57;65.21
80308;BME280;69616;43.522;1.348;2023-07-13T01:49:40;100265.94;;;22.56;65.28
80308;BME280;69616;43.522;1.348;2023-07-13T01:52:06;100271.31;;;22.56;65.34
80308;BME280;69616;43.522;1.348;2023-07-13T01:54:32;100280.31;;;22.55;65.45
80308;BME280;69616;43.522;1.348;2023-07-13T01:56:59;100273.28;;;22.53;65.68
80308;BME280;69616;43.522;1.348;2023-07-13T01:59:24;100279.84;;;22.47;65.56
80308;BME280;69616;43.522;1.348;2023-07-13T02:01:50;100283.78;;;22.40;65.86
80308;BME280;69616;43.522;1.348;2023-07-13T02:04:15;100283.16;;;22.34;65.51
80308;BME280;69616;43.522;1.348;2023-07-13T02:06:40;100273.44;;;22.32;65.28
80308;BME280;69616;43.522;1.348;2023-07-13T02:09:06;100285.06;;;22.32;64.69
80308;BME280;69616;43.522;1.348;2023-07-13T02:11:33;100276.84;;;22.35;64.27
80308;BME280;69616;43.522;1.348;2023-07-13T02:14:00;100271.31;;;22.39;63.75
80308;BME280;69616;43.522;1.348;2023-07-13T02:16:27;100279.25;;;22.40;63.58
80308;BME280;69616;43.522;1.348;2023-07-13T02:18:52;100279.19;;;22.42;63.47
80308;BME280;69616;43.522;1.348;2023-07-13T02:21:18;100283.69;;;22.41;63.19
80308;BME280;69616;43.522;1.348;2023-07-13T02:23:43;100284.63;;;22.40;62.95
80308;BME280;69616;43.522;1.348;2023-07-13T02:26:09;100282.81;;;22.41;63.23
80308;BME280;69616;43.522;1.348;2023-07-13T02:28:35;100281.09;;;22.40;63.08
80308;BME280;69616;43.522;1.348;2023-07-13T02:31:08;100279.38;;;22.39;62.82
80308;BME280;69616;43.522;1.348;2023-07-13T02:33:34;100279.38;;;22.39;62.71
80308;BME280;69616;43.522;1.348;2023-07-13T02:35:59;100281.09;;;22.40;62.73
80308;BME280;69616;43.522;1.348;2023-07-13T02:38:24;100283.84;;;22.38;63.22
80308;BME280;69616;43.522;1.348;2023-07-13T02:40:50;100284.91;;;22.35;63.67
80308;BME280;69616;43.522;1.348;2023-07-13T02:43:15;100290.56;;;22.29;63.82
80308;BME280;69616;43.522;1.348;2023-07-13T02:45:45;100294.34;;;22.25;64.05
80308;BME280;69616;43.522;1.348;2023-07-13T02:48:11;100285.53;;;22.23;64.25
80308;BME280;69616;43.522;1.348;2023-07-13T02:50:36;100292.72;;;22.22;64.49
80308;BME280;69616;43.522;1.348;2023-07-13T02:53:01;100295.63;;;22.18;63.21
80308;BME280;69616;43.522;1.348;2023-07-13T02:55:27;100289.66;;;22.13;62.86
80308;BME280;69616;43.522;1.348;2023-07-13T02:57:52;100300.72;;;22.06;62.35
80308;BME280;69616;43.522;1.348;2023-07-13T03:00:19;100301.72;;;22.04;62.06
80308;BME280;69616;43.522;1.348;2023-07-13T03:02:45;100296.69;;;21.98;61.62
80308;BME280;69616;43.522;1.348;2023-07-13T03:05:11;100296.84;;;21.94;61.78
80308;BME280;69616;43.522;1.348;2023-07-13T03:07:38;100298.66;;;21.94;61.49
80308;BME280;69616;43.522;1.348;2023-07-13T03:10:04;100305.00;;;21.91;61.27
80308;BME280;69616;43.522;1.348;2023-07-13T03:12:30;100299.91;;;21.87;60.92
80308;BME280;69616;43.522;1.348;2023-07-13T03:14:55;100304.56;;;21.83;60.79
80308;BME280;69616;43.522;1.348;2023-07-13T03:17:20;100308.25;;;21.80;60.48
80308;BME280;69616;43.522;1.348;2023-07-13T03:19:46;100316.44;;;21.77;60.68
80308;BME280;69616;43.522;1.348;2023-07-13T03:22:16;100322.69;;;21.78;60.61
80308;BME280;69616;43.522;1.348;2023-07-13T03:24:41;100326.22;;;21.78;60.79
80308;BME280;69616;43.522;1.348;2023-07-13T03:27:06;100324.41;;;21.79;60.56
80308;BME280;69616;43.522;1.348;2023-07-13T03:29:32;100327.00;;;21.80;60.45
80308;BME280;69616;43.522;1.348;2023-07-13T03:31:57;100329.94;;;21.76;60.94
80308;BME280;69616;43.522;1.348;2023-07-13T03:34:23;100328.34;;;21.72;60.72
80308;BME280;69616;43.522;1.348;2023-07-13T03:36:48;100332.09;;;21.68;60.61
80308;BME280;69616;43.522;1.348;2023-07-13T03:39:14;100338.53;;;21.63;60.42
80308;BME280;69616;43.522;1.348;2023-07-13T03:41:39;100351.09;;;21.63;60.21
80308;BME280;69616;43.522;1.348;2023-07-13T03:44:05;100349.25;;;21.63;60.67
80308;BME280;69616;43.522;1.348;2023-07-13T03:46:30;100343.19;;;21.60;60.38
80308;BME280;69616;43.522;1.348;2023-07-13T03:48:56;100340.75;;;21.55;60.29
80308;BME280;69616;43.522;1.348;2023-07-13T03:51:22;100336.38;;;21.52;59.86
80308;BME280;69616;43.522;1.348;2023-07-13T03:53:48;100339.94;;;21.53;59.89
80308;BME280;69616;43.522;1.348;2023-07-13T03:56:14;100337.25;;;21.53;59.79
80308;BME280;69616;43.522;1.348;2023-07-13T03:58:41;100340.78;;;21.54;59.68
80308;BME280;69616;43.522;1.348;2023-07-13T04:01:09;100339.22;;;21.49;59.48
80308;BME280;69616;43.522;1.348;2023-07-13T04:03:35;100348.34;;;21.45;59.55
80308;BME280;69616;43.522;1.348;2023-07-13T04:06:02;100352.19;;;21.40;59.70
80308;BME280;69616;43.522;1.348;2023-07-13T04:08:29;100356.00;;;21.34;59.66
80308;BME280;69616;43.522;1.348;2023-07-13T04:10:56;100350.81;;;21.31;59.29
80308;BME280;69616;43.522;1.348;2023-07-13T04:13:21;100359.78;;;21.30;59.74
80308;BME280;69616;43.522;1.348;2023-07-13T04:15:47;100361.53;;;21.31;59.63
80308;BME280;69616;43.522;1.348;2023-07-13T04:18:12;100356.31;;;21.28;59.33
80308;BME280;69616;43.522;1.348;2023-07-13T04:20:38;100367.19;;;21.25;59.26
80308;BME280;69616;43.522;1.348;2023-07-13T04:23:03;100383.41;;;21.21;59.35
80308;BME280;69616;43.522;1.348;2023-07-13T04:25:29;100378.34;;;21.15;59.28
80308;BME280;69616;43.522;1.348;2023-07-13T04:27:54;100382.09;;;21.11;59.51
80308;BME280;69616;43.522;1.348;2023-07-13T04:30:20;100383.91;;;21.11;59.40
80308;BME280;69616;43.522;1.348;2023-07-13T04:32:46;100378.59;;;21.09;59.03
80308;BME280;69616;43.522;1.348;2023-07-13T04:35:11;100383.94;;;21.09;59.32
80308;BME280;69616;43.522;1.348;2023-07-13T04:37:37;100389.31;;;21.09;59.12
80308;BME280;69616;43.522;1.348;2023-07-13T04:40:03;100399.44;;;21.02;59.32
80308;BME280;69616;43.522;1.348;2023-07-13T04:42:29;100397.91;;;20.97;59.33
80308;BME280;69616;43.522;1.348;2023-07-13T04:44:55;100398.06;;;20.93;59.18
80308;BME280;69616;43.522;1.348;2023-07-13T04:47:20;100396.38;;;20.91;59.03
80308;BME280;69616;43.522;1.348;2023-07-13T04:49:46;100405.53;;;20.85;59.09
80308;BME280;69616;43.522;1.348;2023-07-13T04:52:12;100410.25;;;20.80;59.27
80308;BME280;69616;43.522;1.348;2023-07-13T04:54:38;100407.50;;;20.82;59.09
80308;BME280;69616;43.522;1.348;2023-07-13T04:57:04;100406.63;;;20.81;59.41
80308;BME280;69616;43.522;1.348;2023-07-13T04:59:34;100412.09;;;20.78;58.85
80308;BME280;69616;43.522;1.348;2023-07-13T05:01:59;100412.22;;;20.75;59.34
80308;BME280;69616;43.522;1.348;2023-07-13T05:04:26;100411.56;;;20.70;59.31
80308;BME280;69616;43.522;1.348;2023-07-13T05:06:52;100410.63;;;20.71;59.12
80308;BME280;69616;43.522;1.348;2023-07-13T05:09:17;100410.63;;;20.71;58.77
80308;BME280;69616;43.522;1.348;2023-07-13T05:11:43;100418.47;;;20.75;59.17
80308;BME280;69616;43.522;1.348;2023-07-13T05:14:08;100417.34;;;20.81;58.70
80308;BME280;69616;43.522;1.348;2023-07-13T05:16:35;100418.22;;;20.82;59.02
80308;BME280;69616;43.522;1.348;2023-07-13T05:19:01;100414.50;;;20.84;58.83
80308;BME280;69616;43.522;1.348;2023-07-13T05:21:26;100418.13;;;20.83;58.96
80308;BME280;69616;43.522;1.348;2023-07-13T05:23:51;100419.19;;;20.79;58.47
80308;BME280;69616;43.522;1.348;2023-07-13T05:26:17;100417.53;;;20.76;58.87
80308;BME280;69616;43.522;1.348;2023-07-13T05:28:42;100414.84;;;20.76;58.64
80308;BME280;69616;43.522;1.348;2023-07-13T05:31:09;100411.97;;;20.81;58.59
80308;BME280;69616;43.522;1.348;2023-07-13T05:33:35;100419.06;;;20.82;58.93
80308;BME280;69616;43.522;1.348;2023-07-13T05:36:00;100428.63;;;20.88;58.58
80308;BME280;69616;43.522;1.348;2023-07-13T05:38:26;100423.22;;;20.89;58.51
80308;BME280;69616;43.522;1.348;2023-07-13T05:40:53;100426.75;;;20.90;58.52
80308;BME280;69616;43.522;1.348;2023-07-13T05:43:19;100427.69;;;20.89;58.57
80308;BME280;69616;43.522;1.348;2023-07-13T05:45:44;100434.75;;;20.91;58.54
80308;BME280;69616;43.522;1.348;2023-07-13T05:48:10;100441.09;;;20.89;58.58
80308;BME280;69616;43.522;1.348;2023-07-13T05:50:35;100442.03;;;20.88;58.19
80308;BME280;69616;43.522;1.348;2023-07-13T05:53:01;100451.97;;;20.84;58.32
80308;BME280;69616;43.522;1.348;2023-07-13T05:55:26;100435.00;;;20.85;58.09
80308;BME280;69616;43.522;1.348;2023-07-13T05:57:51;100443.75;;;20.89;57.97
80308;BME280;69616;43.522;1.348;2023-07-13T06:00:17;100441.81;;;20.92;57.48
80308;BME280;69616;43.522;1.348;2023-07-13T06:02:42;100454.78;;;21.02;57.49
80308;BME280;69616;43.522;1.348;2023-07-13T06:05:08;100451.56;;;21.14;57.49
80308;BME280;69616;43.522;1.348;2023-07-13T06:07:33;100459.28;;;21.22;57.63
80308;BME280;69616;43.522;1.348;2023-07-13T06:09:59;100461.84;;;21.23;57.70
80308;BME280;69616;43.522;1.348;2023-07-13T06:12:25;100462.38;;;21.32;57.58
80308;BME280;69616;43.522;1.348;2023-07-13T06:14:50;100473.19;;;21.49;57.82
80308;BME280;69616;43.522;1.348;2023-07-13T06:17:16;100469.16;;;21.60;57.39
80308;BME280;69616;43.522;1.348;2023-07-13T06:19:41;100466.38;;;21.61;57.17
80308;BME280;69616;43.522;1.348;2023-07-13T06:22:07;100469.69;;;21.68;57.63
80308;BME280;69616;43.522;1.348;2023-07-13T06:24:32;100474.09;;;21.69;56.96
80308;BME280;69616;43.522;1.348;2023-07-13T06:26:58;100474.34;;;21.63;57.63
80308;BME280;69616;43.522;1.348;2023-07-13T06:29:23;100484.69;;;21.51;57.95
80308;BME280;69616;43.522;1.348;2023-07-13T06:31:48;100477.78;;;21.46;57.96
80308;BME280;69616;43.522;1.348;2023-07-13T06:34:14;100479.63;;;21.45;57.81
80308;BME280;69616;43.522;1.348;2023-07-13T06:36:39;100490.19;;;21.48;57.63
80308;BME280;69616;43.522;1.348;2023-07-13T06:39:06;100489.25;;;21.49;57.90
80308;BME280;69616;43.522;1.348;2023-07-13T06:41:32;100485.78;;;21.47;57.50
80308;BME280;69616;43.522;1.348;2023-07-13T06:43:58;100491.09;;;21.49;57.85
80308;BME280;69616;43.522;1.348;2023-07-13T06:46:24;100495.63;;;21.47;57.34
80308;BME280;69616;43.522;1.348;2023-07-13T06:48:49;100496.50;;;21.47;57.18
80308;BME280;69616;43.522;1.348;2023-07-13T06:51:15;100496.50;;;21.47;56.91
80308;BME280;69616;43.522;1.348;2023-07-13T06:53:40;100502.00;;;21.44;57.30
80308;BME280;69616;43.522;1.348;2023-07-13T06:56:07;100507.56;;;21.40;57.15
80308;BME280;69616;43.522;1.348;2023-07-13T06:58:33;100507.66;;;21.38;57.28
80308;BME280;69616;43.522;1.348;2023-07-13T07:00:59;100506.75;;;21.37;57.11
80308;BME280;69616;43.522;1.348;2023-07-13T07:03:24;100505.75;;;21.40;57.42
80308;BME280;69616;43.522;1.348;2023-07-13T07:05:50;100509.94;;;21.46;57.20
80308;BME280;69616;43.522;1.348;2023-07-13T07:08:15;100514.41;;;21.47;57.14
80308;BME280;69616;43.522;1.348;2023-07-13T07:10:41;100520.56;;;21.49;57.37
80308;BME280;69616;43.522;1.348;2023-07-13T07:13:07;100522.50;;;21.45;57.22
80308;BME280;69616;43.522;1.348;2023-07-13T07:15:34;100515.41;;;21.44;56.76
80308;BME280;69616;43.522;1.348;2023-07-13T07:17:59;100522.44;;;21.47;56.61
80308;BME280;69616;43.522;1.348;2023-07-13T07:20:25;100521.41;;;21.49;56.52
80308;BME280;69616;43.522;1.348;2023-07-13T07:22:52;100521.22;;;21.54;55.86
80308;BME280;69616;43.522;1.348;2023-07-13T07:25:17;100521.91;;;21.58;56.20
80308;BME280;69616;43.522;1.348;2023-07-13T07:27:43;100524.47;;;21.61;56.26
80308;BME280;69616;43.522;1.348;2023-07-13T07:30:08;100520.59;;;21.68;56.18
80308;BME280;69616;43.522;1.348;2023-07-13T07:32:34;100519.44;;;21.74;55.88
80308;BME280;69616;43.522;1.348;2023-07-13T07:34:59;100517.56;;;21.76;55.82
80308;BME280;69616;43.522;1.348;2023-07-13T07:37:25;100515.47;;;21.83;55.56
80308;BME280;69616;43.522;1.348;2023-07-13T07:39:50;100520.44;;;21.90;55.46
80308;BME280;69616;43.522;1.348;2023-07-13T07:42:16;100521.03;;;21.97;55.32
80308;BME280;69616;43.522;1.348;2023-07-13T07:44:41;100516.31;;;22.02;55.32
80308;BME280;69616;43.522;1.348;2023-07-13T07:47:08;100521.50;;;22.05;55.37
80308;BME280;69616;43.522;1.348;2023-07-13T07:49:34;100527.31;;;22.15;54.98
80308;BME280;69616;43.522;1.348;2023-07-13T07:51:59;100522.53;;;22.22;54.98
80308;BME280;69616;43.522;1.348;2023-07-13T07:54:25;100516.63;;;22.33;54.70
80308;BME280;69616;43.522;1.348;2023-07-13T07:56:50;100524.66;;;22.52;54.89
80308;BME280;69616;43.522;1.348;2023-07-13T07:59:15;100521.22;;;22.68;54.50
80308;BME280;69616;43.522;1.348;2023-07-13T08:01:41;100520.09;;;22.72;54.35
80308;BME280;69616;43.522;1.348;2023-07-13T08:04:06;100514.13;;;22.84;53.80
80308;BME280;69616;43.522;1.348;2023-07-13T08:06:32;100513.78;;;23.08;53.84
80308;BME280;69616;43.522;1.348;2023-07-13T08:08:59;100510.09;;;23.44;53.39
80308;BME280;69616;43.522;1.348;2023-07-13T08:11:25;100513.81;;;23.75;52.65
80308;BME280;69616;43.522;1.348;2023-07-13T08:13:50;100511.03;;;23.93;51.99
80308;BME280;69616;43.522;1.348;2023-07-13T08:16:16;100501.53;;;24.03;51.54
80308;BME280;69616;43.522;1.348;2023-07-13T08:18:41;100499.25;;;24.12;51.25
80308;BME280;69616;43.522;1.348;2023-07-13T08:21:08;100496.97;;;24.20;51.27
80308;BME280;69616;43.522;1.348;2023-07-13T08:23:34;100502.88;;;24.27;51.28
80308;BME280;69616;43.522;1.348;2023-07-13T08:26:00;100499.97;;;24.46;50.76
80308;BME280;69616;43.522;1.348;2023-07-13T08:28:27;100498.31;;;24.59;50.05
80308;BME280;69616;43.522;1.348;2023-07-13T08:30:53;100509.28;;;24.71;50.50
80308;BME280;69616;43.522;1.348;2023-07-13T08:33:19;100502.44;;;24.81;50.08
80308;BME280;69616;43.522;1.348;2023-07-13T08:35:46;100494.44;;;24.79;50.00
80308;BME280;69616;43.522;1.348;2023-07-13T08:38:12;100506.53;;;25.03;50.04
80308;BME280;69616;43.522;1.348;2023-07-13T08:40:39;100508.97;;;25.36;49.20
80308;BME280;69616;43.522;1.348;2023-07-13T08:43:04;100505.03;;;25.71;48.14
80308;BME280;69616;43.522;1.348;2023-07-13T08:46:02;100512.03;;;25.88;48.15
80308;BME280;69616;43.522;1.348;2023-07-13T08:48:31;100488.16;;;26.09;47.16
80308;BME280;69616;43.522;1.348;2023-07-13T08:51:23;100490.44;;;26.30;46.85
80308;BME280;69616;43.522;1.348;2023-07-13T08:53:52;100486.97;;;26.28;45.84
80308;BME280;69616;43.522;1.348;2023-07-13T08:56:25;100494.53;;;26.23;46.25
80308;BME280;69616;43.522;1.348;2023-07-13T08:58:56;100491.81;;;26.23;46.73
80308;BME280;69616;43.522;1.348;2023-07-13T09:01:30;100489.06;;;26.37;46.56
80308;BME280;69616;43.522;1.348;2023-07-13T09:04:14;100489.97;;;26.51;45.58
80308;BME280;69616;43.522;1.348;2023-07-13T09:12:31;100485.44;;;26.64;44.13
80308;BME280;69616;43.522;1.348;2023-07-13T09:14:59;100489.25;;;26.75;44.51
80308;BME280;69616;43.522;1.348;2023-07-13T09:17:36;100494.66;;;26.75;44.22
80308;BME280;69616;43.522;1.348;2023-07-13T09:20:26;100488.28;;;26.76;44.40
80308;BME280;69616;43.522;1.348;2023-07-13T09:22:53;100482.88;;;26.76;44.84
80308;BME280;69616;43.522;1.348;2023-07-13T09:25:33;100493.00;;;26.59;44.29
80308;BME280;69616;43.522;1.348;2023-07-13T09:28:12;100491.06;;;26.61;44.73
80308;BME280;69616;43.522;1.348;2023-07-13T09:31:09;100492.72;;;26.77;44.42
80308;BME280;69616;43.522;1.348;2023-07-13T09:33:32;100490.28;;;26.87;44.14
80308;BME280;69616;43.522;1.348;2023-07-13T09:35:59;100490.28;;;27.00;43.66
80308;BME280;69616;43.522;1.348;2023-07-13T09:38:27;100489.31;;;26.88;43.27
80308;BME280;69616;43.522;1.348;2023-07-13T09:41:47;100499.41;;;26.71;43.90
80308;BME280;69616;43.522;1.348;2023-07-13T09:46:36;100500.09;;;26.47;45.02
80308;BME280;69616;43.522;1.348;2023-07-13T09:49:01;100498.38;;;26.46;44.57
80308;BME280;69616;43.522;1.348;2023-07-13T09:51:26;100494.81;;;26.46;44.95
80308;BME280;69616;43.522;1.348;2023-07-13T09:53:53;100495.53;;;26.35;44.72
80308;BME280;69616;43.522;1.348;2023-07-13T09:56:26;100489.13;;;26.08;44.68
80308;BME280;69616;43.522;1.348;2023-07-13T09:58:51;100497.00;;;25.84;45.07
80308;BME280;69616;43.522;1.348;2023-07-13T10:01:35;100496.94;;;25.71;45.52
80308;BME280;69616;43.522;1.348;2023-07-13T10:04:01;100505.81;;;25.73;46.40
80308;BME280;69616;43.522;1.348;2023-07-13T10:06:27;100501.53;;;25.84;45.92
80308;BME280;69616;43.522;1.348;2023-07-13T10:08:53;100506.16;;;25.96;45.90
80308;BME280;69616;43.522;1.348;2023-07-13T10:11:29;100509.34;;;26.16;45.19
80308;BME280;69616;43.522;1.348;2023-07-13T10:13:56;100503.56;;;26.49;44.79
80308;BME280;69616;43.522;1.348;2023-07-13T10:16:23;100503.94;;;26.71;45.11
80308;BME280;69616;43.522;1.348;2023-07-13T10:18:53;100517.03;;;26.77;44.48
80308;BME280;69616;43.522;1.348;2023-07-13T10:21:21;100504.78;;;26.58;44.32
80308;BME280;69616;43.522;1.348;2023-07-13T10:23:56;100504.88;;;26.44;44.88
80308;BME280;69616;43.522;1.348;2023-07-13T10:26:33;100516.69;;;26.28;44.82
80308;BME280;69616;43.522;1.348;2023-07-13T10:29:04;100507.06;;;26.09;45.29
80308;BME280;69616;43.522;1.348;2023-07-13T10:31:35;100516.72;;;25.99;45.63
80308;BME280;69616;43.522;1.348;2023-07-13T10:34:02;100511.97;;;26.03;45.99
80308;BME280;69616;43.522;1.348;2023-07-13T10:36:33;100507.47;;;26.03;45.69
80308;BME280;69616;43.522;1.348;2023-07-13T10:39:02;100506.69;;;26.01;45.88
80308;BME280;69616;43.522;1.348;2023-07-13T10:41:31;100499.47;;;26.02;45.78
80308;BME280;69616;43.522;1.348;2023-07-13T10:43:58;100513.84;;;26.02;45.44
80308;BME280;69616;43.522;1.348;2023-07-13T10:46:25;100500.69;;;26.11;45.69
80308;BME280;69616;43.522;1.348;2023-07-13T10:48:58;100506.84;;;26.27;45.70
80308;BME280;69616;43.522;1.348;2023-07-13T10:51:25;100499.03;;;26.50;45.12
80308;BME280;69616;43.522;1.348;2023-07-13T10:56:40;100510.75;;;26.76;44.57
80308;BME280;69616;43.522;1.348;2023-07-13T11:04:29;100507.94;;;26.65;45.05
80308;BME280;69616;43.522;1.348;2023-07-13T11:07:21;100498.03;;;26.78;44.58
80308;BME280;69616;43.522;1.348;2023-07-13T11:09:51;100502.16;;;26.97;44.66
80308;BME280;69616;43.522;1.348;2023-07-13T11:19:54;100492.31;;;27.74;43.32
80308;BME280;69616;43.522;1.348;2023-07-13T11:22:25;100489.34;;;27.90;43.31
80308;BME280;69616;43.522;1.348;2023-07-13T11:25:06;100495.13;;;28.10;42.83
80308;BME280;69616;43.522;1.348;2023-07-13T11:27:49;100485.13;;;28.23;43.08
80308;BME280;69616;43.522;1.348;2023-07-13T11:41:25;100475.69;;;27.54;43.44
80308;BME280;69616;43.522;1.348;2023-07-13T11:44:01;100478.63;;;27.38;43.77
80308;BME280;69616;43.522;1.348;2023-07-13T11:46:28;100474.06;;;27.39;43.87
80308;BME280;69616;43.522;1.348;2023-07-13T11:48:54;100472.56;;;27.34;43.67
80308;BME280;69616;43.522;1.348;2023-07-13T11:51:28;100472.78;;;27.18;43.76
80308;BME280;69616;43.522;1.348;2023-07-13T11:53:56;100457.31;;;27.20;44.04
80308;BME280;69616;43.522;1.348;2023-07-13T11:56:23;100462.19;;;27.28;44.34
80308;BME280;69616;43.522;1.348;2023-07-13T11:58:52;100461.72;;;27.47;43.75
80308;BME280;69616;43.522;1.348;2023-07-13T12:01:22;100449.81;;;27.63;43.84
80308;BME280;69616;43.522;1.348;2023-07-13T12:03:49;100458.03;;;27.61;43.56
80308;BME280;69616;43.522;1.348;2023-07-13T12:06:34;100454.56;;;27.46;43.64
80308;BME280;69616;43.522;1.348;2023-07-13T12:09:11;100448.50;;;27.56;44.60
80308;BME280;69616;43.522;1.348;2023-07-13T12:11:40;100450.09;;;27.71;43.91
80308;BME280;69616;43.522;1.348;2023-07-13T12:14:10;100437.63;;;27.82;43.15
80308;BME280;69616;43.522;1.348;2023-07-13T12:16:36;100439.66;;;27.91;43.25
80308;BME280;69616;43.522;1.348;2023-07-13T12:19:02;100434.97;;;27.93;43.09
80308;BME280;69616;43.522;1.348;2023-07-13T12:21:39;100433.19;;;27.80;42.84
80308;BME280;69616;43.522;1.348;2023-07-13T12:24:11;100428.94;;;27.89;43.30
80308;BME280;69616;43.522;1.348;2023-07-13T12:26:39;100430.66;;;27.90;42.87
80308;BME280;69616;43.522;1.348;2023-07-13T12:29:06;100433.41;;;27.77;43.05
80308;BME280;69616;43.522;1.348;2023-07-13T12:31:37;100437.69;;;27.93;43.45
80308;BME280;69616;43.522;1.348;2023-07-13T12:34:20;100422.97;;;28.21;43.40
80308;BME280;69616;43.522;1.348;2023-07-13T12:36:48;100421.13;;;28.22;42.26
80308;BME280;69616;43.522;1.348;2023-07-13T12:42:20;100424.44;;;28.01;42.67
80308;BME280;69616;43.522;1.348;2023-07-13T12:44:49;100415.63;;;28.11;42.02
80308;BME280;69616;43.522;1.348;2023-07-13T12:47:15;100420.88;;;28.01;42.36
80308;BME280;69616;43.522;1.348;2023-07-13T12:49:55;100423.41;;;27.91;42.59
80308;BME280;69616;43.522;1.348;2023-07-13T12:52:24;100426.16;;;28.02;42.78
80308;BME280;69616;43.522;1.348;2023-07-13T12:55:04;100419.78;;;28.03;42.33
80308;BME280;69616;43.522;1.348;2023-07-13T12:57:30;100421.25;;;28.07;42.50
80308;BME280;69616;43.522;1.348;2023-07-13T12:59:55;100419.91;;;28.26;42.83
80308;BME280;69616;43.522;1.348;2023-07-13T13:02:32;100413.56;;;28.39;42.77
80308;BME280;69616;43.522;1.348;2023-07-13T13:05:00;100406.91;;;28.54;42.71
80308;BME280;69616;43.522;1.348;2023-07-13T13:07:26;100409.34;;;28.82;42.36
80308;BME280;69616;43.522;1.348;2023-07-13T13:09:52;100406.16;;;29.11;41.68
80308;BME280;69616;43.522;1.348;2023-07-13T13:12:20;100403.81;;;29.17;40.97
80308;BME280;69616;43.522;1.348;2023-07-13T13:14:46;100406.16;;;29.11;40.59
80308;BME280;69616;43.522;1.348;2023-07-13T13:17:22;100409.13;;;28.96;40.69
80308;BME280;69616;43.522;1.348;2023-07-13T13:19:52;100398.03;;;28.99;41.11
80308;BME280;69616;43.522;1.348;2023-07-13T13:22:22;100392.09;;;29.17;40.94
80308;BME280;69616;43.522;1.348;2023-07-13T13:24:48;100393.94;;;29.28;40.54
80308;BME280;69616;43.522;1.348;2023-07-13T13:27:19;100396.44;;;29.31;40.58
80308;BME280;69616;43.522;1.348;2023-07-13T13:29:46;100393.72;;;29.42;40.15
80308;BME280;69616;43.522;1.348;2023-07-13T13:32:13;100388.41;;;29.41;40.41
80308;BME280;69616;43.522;1.348;2023-07-13T13:34:39;100383.09;;;29.50;40.36
80308;BME280;69616;43.522;1.348;2023-07-13T13:37:15;100382.84;;;29.54;40.02